Time;durP1;ratioP1;P1;durP2;ratioP2;P2;SDS_P1;SDS_P2;PMS_P1;PMS_P2;Temp;Humidity;BMP_temperature;BMP_pressure;BME280_temperature;BME280_humidity;BME280_pressure;Samples;Min_cycle;Max_cycle;Signal;HPM_P1;HPM_P2
2022/01/09 00:00:21;;;;;;;8.65;8.02;;;;;;;;;;5010040;28;20033;-79
2022/01/09 00:02:47;;;;;;;9.13;8.52;;;;;;;;;;4993125;28;20037;-77
2022/01/09 00:05:14;;;;;;;9.18;8.57;;;;;;;;;;4992674;28;20041;-79
2022/01/09 00:07:39;;;;;;;9.35;8.65;;;;;;;;;;5014173;28;20041;-78
2022/01/09 00:10:07;;;;;;;8.90;8.30;;;;;;;;;;5012278;28;20100;-78
2022/01/09 00:12:34;;;;;;;9.30;8.70;;;;;;;;;;5010645;28;20044;-77
2022/01/09 00:15:00;;;;;;;8.90;8.30;;;;;;;;;;5009518;28;20060;-80
2022/01/09 00:17:25;;;;;;;8.70;8.20;;;;;;;;;;5012144;28;20560;-80
2022/01/09 00:19:51;;;;;;;8.77;8.27;;;;;;;;;;4992325;28;20045;-82
2022/01/09 00:22:21;;;;;;;8.48;7.97;;;;;;;;;;4973578;28;20045;-78
2022/01/09 00:24:46;;;;;;;8.50;8.00;;;;;;;;;;5013432;28;20041;-79
2022/01/09 00:27:12;;;;;;;9.07;8.48;;;;;;;;;;5010988;28;20038;-80
2022/01/09 00:29:37;;;;;;;9.27;8.68;;;;;;;;;;4992773;28;20125;-79
2022/01/09 00:32:03;;;;;;;9.00;8.50;;;;;;;;;;5010068;28;20030;-77
2022/01/09 00:34:29;;;;;;;9.27;8.68;;;;;;;;;;5011124;28;20077;-75
2022/01/09 00:36:54;;;;;;;9.20;8.60;;;;;;;;;;5010222;28;20465;-79
2022/01/09 00:39:21;;;;;;;9.05;8.55;;;;;;;;;;5014022;28;20489;-81
2022/01/09 00:41:47;;;;;;;9.00;8.50;;;;;;;;;;5025845;28;20061;-79
2022/01/09 00:44:12;;;;;;;9.10;8.40;;;;;;;;;;5013109;28;20088;-79
2022/01/09 00:46:38;;;;;;;9.30;8.80;;;;;;;;;;5009919;28;20042;-78
2022/01/09 00:49:04;;;;;;;9.10;8.60;;;;;;;;;;4987413;28;20041;-80
2022/01/09 00:51:31;;;;;;;8.93;8.43;;;;;;;;;;5009459;28;20561;-80
2022/01/09 00:53:57;;;;;;;9.13;8.63;;;;;;;;;;5018851;28;20099;-79
2022/01/09 00:56:22;;;;;;;9.52;8.93;;;;;;;;;;5009268;28;20103;-79
2022/01/09 00:58:48;;;;;;;9.35;8.85;;;;;;;;;;5014690;28;20497;-81
2022/01/09 01:01:14;;;;;;;9.10;8.60;;;;;;;;;;5014125;28;20034;-78
2022/01/09 01:03:39;;;;;;;9.40;8.80;;;;;;;;;;5009750;28;20049;-79
2022/01/09 01:06:05;;;;;;;8.77;8.27;;;;;;;;;;5010463;28;20060;-79
2022/01/09 01:08:31;;;;;;;8.77;8.18;;;;;;;;;;5010514;28;20100;-77
2022/01/09 01:10:56;;;;;;;8.73;8.23;;;;;;;;;;5012373;28;20469;-74
2022/01/09 01:13:22;;;;;;;8.75;8.27;;;;;;;;;;5009718;28;20046;-78
2022/01/09 01:15:48;;;;;;;8.90;8.40;;;;;;;;;;5009309;28;20030;-78
2022/01/09 01:18:14;;;;;;;9.27;8.77;;;;;;;;;;4991556;28;20040;-77
2022/01/09 01:20:40;;;;;;;9.43;8.80;;;;;;;;;;5013894;28;20030;-80
2022/01/09 01:23:06;;;;;;;9.60;8.95;;;;;;;;;;5013084;28;20612;-80
2022/01/09 01:25:32;;;;;;;8.75;8.20;;;;;;;;;;5012221;28;20050;-79
2022/01/09 01:27:58;;;;;;;8.88;8.38;;;;;;;;;;5009096;28;20038;-80
2022/01/09 01:30:23;;;;;;;9.30;8.70;;;;;;;;;;4990937;28;20041;-79
2022/01/09 01:32:49;;;;;;;9.57;8.98;;;;;;;;;;5008499;28;20036;-77
2022/01/09 01:35:15;;;;;;;9.05;8.55;;;;;;;;;;5008494;28;20030;-79
2022/01/09 01:37:42;;;;;;;8.82;8.32;;;;;;;;;;4991849;28;20117;-79
2022/01/09 01:40:14;;;;;;;9.10;8.60;;;;;;;;;;5008759;28;20030;-80
2022/01/09 01:42:41;;;;;;;9.10;8.60;;;;;;;;;;5008631;28;20046;-80
2022/01/09 01:45:07;;;;;;;9.43;8.93;;;;;;;;;;5008622;28;20519;-79
2022/01/09 01:47:33;;;;;;;8.82;8.32;;;;;;;;;;5008401;28;20034;-77
2022/01/09 01:49:58;;;;;;;9.20;8.70;;;;;;;;;;5007917;28;20101;-80
2022/01/09 01:52:31;;;;;;;9.00;8.50;;;;;;;;;;5006839;28;20416;-80
2022/01/09 01:54:56;;;;;;;9.40;8.80;;;;;;;;;;5005546;28;20495;-80
2022/01/09 01:57:22;;;;;;;8.95;8.45;;;;;;;;;;5008391;28;20030;-79
2022/01/09 01:59:48;;;;;;;9.15;8.60;;;;;;;;;;5008674;28;20628;-78
2022/01/09 02:02:13;;;;;;;9.32;8.82;;;;;;;;;;5014495;28;20034;-77
2022/01/09 02:04:40;;;;;;;9.02;8.52;;;;;;;;;;4993385;28;20049;-79
2022/01/09 02:07:07;;;;;;;9.23;8.73;;;;;;;;;;4996326;28;20512;-78
2022/01/09 02:09:33;;;;;;;9.60;9.10;;;;;;;;;;4991394;28;20040;-79
2022/01/09 02:11:59;;;;;;;9.65;9.10;;;;;;;;;;5016484;28;20113;-78
2022/01/09 02:14:25;;;;;;;9.57;8.98;;;;;;;;;;5011769;28;20060;-78
2022/01/09 02:16:51;;;;;;;9.48;8.98;;;;;;;;;;5013122;28;20038;-78
2022/01/09 02:19:20;;;;;;;9.18;8.68;;;;;;;;;;4980440;28;20040;-79
2022/01/09 02:21:46;;;;;;;9.43;8.93;;;;;;;;;;4998002;28;20060;-78
2022/01/09 02:24:13;;;;;;;9.20;8.70;;;;;;;;;;5015277;28;20112;-80
2022/01/09 02:26:39;;;;;;;9.50;8.95;;;;;;;;;;5013189;28;20038;-76
2022/01/09 02:29:05;;;;;;;9.20;8.70;;;;;;;;;;5015076;28;20080;-77
2022/01/09 02:31:32;;;;;;;9.40;8.70;;;;;;;;;;5013585;28;20415;-77
2022/01/09 02:33:58;;;;;;;8.90;8.40;;;;;;;;;;5009846;28;20069;-78
2022/01/09 02:36:24;;;;;;;8.98;8.48;;;;;;;;;;5013675;28;20516;-78
2022/01/09 02:38:50;;;;;;;8.68;8.27;;;;;;;;;;5016930;28;20037;-75
2022/01/09 02:41:15;;;;;;;8.90;8.45;;;;;;;;;;5011826;28;20037;-78
2022/01/09 02:43:41;;;;;;;8.82;8.32;;;;;;;;;;5014022;28;20056;-77
2022/01/09 02:48:58;;;;;;;8.80;8.40;;;;;;;;;;4989545;28;20077;-78
2022/01/09 02:51:25;;;;;;;8.75;8.35;;;;;;;;;;4996781;28;20042;-77
2022/01/09 02:53:57;;;;;;;8.82;8.35;;;;;;;;;;5001104;28;20038;-78
2022/01/09 02:56:22;;;;;;;8.52;8.13;;;;;;;;;;5014568;28;20029;-78
2022/01/09 02:58:48;;;;;;;8.48;8.07;;;;;;;;;;4983242;28;20050;-77
2022/01/09 03:01:14;;;;;;;8.80;8.30;;;;;;;;;;4988902;28;20061;-75
2022/01/09 03:03:39;;;;;;;9.20;8.70;;;;;;;;;;4986489;28;20120;-80
2022/01/09 03:06:07;;;;;;;8.93;8.43;;;;;;;;;;5006727;28;20029;-76
2022/01/09 03:08:33;;;;;;;8.90;8.50;;;;;;;;;;4999976;28;20469;-77
2022/01/09 03:10:59;;;;;;;8.70;8.20;;;;;;;;;;5008352;28;20038;-80
2022/01/09 03:13:25;;;;;;;8.80;8.30;;;;;;;;;;5016947;28;20037;-77
2022/01/09 03:15:51;;;;;;;8.82;8.32;;;;;;;;;;5014833;28;20038;-77
2022/01/09 03:18:16;;;;;;;8.73;8.27;;;;;;;;;;5003919;28;20064;-76
2022/01/09 03:20:42;;;;;;;8.73;8.32;;;;;;;;;;5015531;28;20060;-76
2022/01/09 03:23:08;;;;;;;8.57;8.07;;;;;;;;;;5021043;28;20085;-78
2022/01/09 03:25:35;;;;;;;8.43;8.02;;;;;;;;;;5000995;28;20080;-76
2022/01/09 03:28:01;;;;;;;8.98;8.50;;;;;;;;;;5004028;28;20614;-77
2022/01/09 03:30:27;;;;;;;8.82;8.32;;;;;;;;;;5016636;28;20057;-76
2022/01/09 03:32:54;;;;;;;8.88;8.38;;;;;;;;;;5014476;28;20042;-79
2022/01/09 03:35:22;;;;;;;8.57;8.18;;;;;;;;;;5017612;28;20034;-79
2022/01/09 03:37:49;;;;;;;8.82;8.32;;;;;;;;;;5017270;28;20166;-77
2022/01/09 03:40:21;;;;;;;8.57;8.18;;;;;;;;;;5016812;28;20048;-78
2022/01/09 03:42:48;;;;;;;9.07;8.48;;;;;;;;;;5016364;28;20511;-77
2022/01/09 03:45:15;;;;;;;8.60;8.20;;;;;;;;;;5003721;28;20033;-78
2022/01/09 03:47:41;;;;;;;8.88;8.38;;;;;;;;;;4998791;28;20103;-77
2022/01/09 03:50:10;;;;;;;8.45;7.95;;;;;;;;;;4998236;28;20038;-78
2022/01/09 03:52:38;;;;;;;8.82;8.32;;;;;;;;;;5015003;28;20033;-78
2022/01/09 03:55:06;;;;;;;8.70;8.27;;;;;;;;;;5020190;28;20034;-79
2022/01/09 03:57:32;;;;;;;8.80;8.40;;;;;;;;;;5018927;28;20042;-79
2022/01/09 03:59:58;;;;;;;8.80;8.30;;;;;;;;;;4992699;28;20048;-78
2022/01/09 04:02:24;;;;;;;8.90;8.40;;;;;;;;;;5010247;28;20123;-79
2022/01/09 04:04:49;;;;;;;8.73;8.32;;;;;;;;;;5006237;28;20057;-79
2022/01/09 04:07:16;;;;;;;8.32;7.93;;;;;;;;;;5009310;28;20401;-81
2022/01/09 04:09:44;;;;;;;8.85;8.35;;;;;;;;;;5011968;28;20026;-81
2022/01/09 04:12:29;;;;;;;8.98;8.48;;;;;;;;;;4992365;28;20030;-78
2022/01/09 04:14:55;;;;;;;8.70;8.30;;;;;;;;;;5010117;28;20099;-81
2022/01/09 04:17:35;;;;;;;8.85;8.35;;;;;;;;;;5009438;28;20417;-77
2022/01/09 04:20:01;;;;;;;8.70;8.20;;;;;;;;;;4993574;28;20335;-77
2022/01/09 04:22:26;;;;;;;8.90;8.27;;;;;;;;;;5016371;28;20095;-78
2022/01/09 04:24:52;;;;;;;8.90;8.40;;;;;;;;;;5021163;28;20152;-80
2022/01/09 04:27:17;;;;;;;8.90;8.40;;;;;;;;;;4998287;28;20041;-80
2022/01/09 04:29:43;;;;;;;8.88;8.38;;;;;;;;;;5016451;28;20076;-77
2022/01/09 04:32:09;;;;;;;8.90;8.40;;;;;;;;;;5000970;28;20091;-77
2022/01/09 04:34:34;;;;;;;8.52;8.13;;;;;;;;;;5018726;28;20034;-79
2022/01/09 04:37:00;;;;;;;9.40;8.70;;;;;;;;;;4994351;28;20042;-79
2022/01/09 04:39:28;;;;;;;8.73;8.23;;;;;;;;;;4993065;28;20107;-79
2022/01/09 04:41:54;;;;;;;8.60;8.20;;;;;;;;;;4992374;28;20048;-77
2022/01/09 04:44:20;;;;;;;8.50;8.10;;;;;;;;;;5009833;28;20416;-80
2022/01/09 04:46:53;;;;;;;8.85;8.35;;;;;;;;;;5009203;28;20780;-79
2022/01/09 04:49:23;;;;;;;8.50;8.00;;;;;;;;;;5009905;28;20053;-78
2022/01/09 04:51:48;;;;;;;8.55;8.07;;;;;;;;;;4993334;28;20037;-79
2022/01/09 04:54:14;;;;;;;8.43;8.02;;;;;;;;;;4981270;28;20033;-79
2022/01/09 04:56:40;;;;;;;8.52;8.02;;;;;;;;;;5010933;28;20387;-79
2022/01/09 04:59:05;;;;;;;8.63;8.13;;;;;;;;;;5009818;28;20041;-78
2022/01/09 05:01:31;;;;;;;8.73;8.32;;;;;;;;;;5008790;28;20037;-80
2022/01/09 05:03:57;;;;;;;8.90;8.40;;;;;;;;;;5011100;28;20084;-79
2022/01/09 05:06:22;;;;;;;9.05;8.40;;;;;;;;;;5011152;28;20044;-78
2022/01/09 05:08:48;;;;;;;8.85;8.27;;;;;;;;;;5009265;28;20057;-78
2022/01/09 05:11:13;;;;;;;8.70;8.20;;;;;;;;;;4990962;28;20029;-79
2022/01/09 05:13:39;;;;;;;9.00;8.50;;;;;;;;;;5013669;28;20730;-79
2022/01/09 05:16:05;;;;;;;8.88;8.35;;;;;;;;;;4996794;28;20526;-82
2022/01/09 05:18:32;;;;;;;9.20;8.50;;;;;;;;;;5002280;28;20425;-77
2022/01/09 05:20:58;;;;;;;9.10;8.60;;;;;;;;;;5009140;28;20509;-77
2022/01/09 05:23:24;;;;;;;9.15;8.65;;;;;;;;;;5009997;28;20041;-79
2022/01/09 05:25:49;;;;;;;9.20;8.70;;;;;;;;;;4995997;28;20411;-78
2022/01/09 05:28:15;;;;;;;9.25;8.75;;;;;;;;;;4994607;28;20045;-76
2022/01/09 05:30:40;;;;;;;9.30;8.80;;;;;;;;;;5008150;28;20041;-79
2022/01/09 05:33:06;;;;;;;9.38;8.88;;;;;;;;;;4998267;28;20048;-79
2022/01/09 05:35:32;;;;;;;9.35;8.85;;;;;;;;;;5015718;28;20037;-78
2022/01/09 05:37:57;;;;;;;9.00;8.50;;;;;;;;;;5008057;28;20105;-76
2022/01/09 05:40:23;;;;;;;9.27;8.77;;;;;;;;;;5008833;28;20034;-77
2022/01/09 05:42:49;;;;;;;9.75;9.23;;;;;;;;;;5008460;28;20038;-78
2022/01/09 05:45:18;;;;;;;9.48;8.98;;;;;;;;;;5008449;28;20041;-79
2022/01/09 05:47:45;;;;;;;9.20;8.70;;;;;;;;;;5007891;28;20346;-78
2022/01/09 05:50:11;;;;;;;9.30;8.70;;;;;;;;;;5012766;28;20744;-80
2022/01/09 05:52:36;;;;;;;9.38;8.88;;;;;;;;;;5009905;28;20080;-79
2022/01/09 05:55:03;;;;;;;9.65;9.00;;;;;;;;;;5010189;28;20029;-76
2022/01/09 05:57:28;;;;;;;9.52;9.02;;;;;;;;;;5009899;28;20097;-78
2022/01/09 05:59:54;;;;;;;9.27;8.77;;;;;;;;;;5001689;28;20054;-78
2022/01/09 06:02:19;;;;;;;9.48;8.98;;;;;;;;;;5008959;28;20084;-76
2022/01/09 06:04:45;;;;;;;8.98;8.52;;;;;;;;;;4990955;28;20046;-79
2022/01/09 06:07:10;;;;;;;9.50;9.00;;;;;;;;;;5007691;28;20180;-79
2022/01/09 06:09:36;;;;;;;9.25;8.75;;;;;;;;;;5009414;28;20509;-77
2022/01/09 06:12:02;;;;;;;9.48;8.88;;;;;;;;;;5007966;28;20108;-80
2022/01/09 06:14:27;;;;;;;9.55;9.05;;;;;;;;;;4988999;28;20066;-79
2022/01/09 06:16:53;;;;;;;9.40;8.90;;;;;;;;;;5014503;28;20038;-78
2022/01/09 06:19:18;;;;;;;9.30;8.80;;;;;;;;;;5007960;28;20095;-77
2022/01/09 06:21:44;;;;;;;9.52;8.88;;;;;;;;;;5007651;28;20038;-78
2022/01/09 06:24:10;;;;;;;9.48;8.88;;;;;;;;;;5010465;28;20034;-78
2022/01/09 06:26:36;;;;;;;9.60;9.10;;;;;;;;;;5010945;28;20121;-77
2022/01/09 06:29:02;;;;;;;9.48;8.93;;;;;;;;;;5008279;28;20045;-78
2022/01/09 06:31:27;;;;;;;9.38;8.88;;;;;;;;;;5007893;28;20026;-78
2022/01/09 06:33:53;;;;;;;9.50;9.00;;;;;;;;;;4989163;28;20045;-77
2022/01/09 06:36:19;;;;;;;9.80;9.20;;;;;;;;;;4994043;28;20588;-77
2022/01/09 06:38:44;;;;;;;9.50;8.90;;;;;;;;;;5007762;28;20042;-80
2022/01/09 06:41:10;;;;;;;9.45;8.95;;;;;;;;;;4994243;28;20637;-78
2022/01/09 06:43:36;;;;;;;9.90;9.40;;;;;;;;;;5010050;28;20040;-77
2022/01/09 06:46:01;;;;;;;10.40;9.80;;;;;;;;;;5014101;28;20041;-78
2022/01/09 06:48:27;;;;;;;10.00;9.50;;;;;;;;;;4994375;28;20080;-81
2022/01/09 06:50:52;;;;;;;10.40;9.80;;;;;;;;;;5010308;28;20041;-79
2022/01/09 06:53:18;;;;;;;10.32;9.73;;;;;;;;;;5015147;28;20050;-78
2022/01/09 06:55:44;;;;;;;9.68;9.18;;;;;;;;;;5011942;28;20108;-78
2022/01/09 06:58:09;;;;;;;9.25;8.75;;;;;;;;;;5010888;28;20061;-81
2022/01/09 07:00:35;;;;;;;10.30;9.60;;;;;;;;;;5015680;28;20072;-78
2022/01/09 07:03:01;;;;;;;10.10;9.50;;;;;;;;;;5011606;28;20030;-78
2022/01/09 07:05:26;;;;;;;10.80;10.10;;;;;;;;;;5011738;28;20040;-79
2022/01/09 07:07:52;;;;;;;11.00;10.30;;;;;;;;;;4993736;28;20087;-81
2022/01/09 07:10:17;;;;;;;10.90;10.30;;;;;;;;;;5010661;28;20030;-79
2022/01/09 07:12:43;;;;;;;10.50;9.90;;;;;;;;;;5010064;28;20046;-80
2022/01/09 07:15:09;;;;;;;10.75;10.05;;;;;;;;;;5011555;28;20125;-78
2022/01/09 07:17:35;;;;;;;10.77;9.93;;;;;;;;;;4993736;28;20039;-78
2022/01/09 07:20:00;;;;;;;10.60;10.00;;;;;;;;;;5012312;28;20042;-79
2022/01/09 07:22:27;;;;;;;10.90;10.20;;;;;;;;;;5011025;28;20036;-81
2022/01/09 07:24:53;;;;;;;10.60;10.00;;;;;;;;;;5001162;28;20508;-78
2022/01/09 07:27:19;;;;;;;10.30;9.70;;;;;;;;;;4994328;28;20068;-78
2022/01/09 07:29:44;;;;;;;11.40;10.60;;;;;;;;;;5011405;28;20049;-81
2022/01/09 07:32:10;;;;;;;10.60;10.00;;;;;;;;;;5011631;28;20042;-79
2022/01/09 07:34:36;;;;;;;10.77;10.10;;;;;;;;;;4993912;28;20392;-78
2022/01/09 07:37:01;;;;;;;10.50;9.90;;;;;;;;;;5011373;28;20489;-78
2022/01/09 07:39:28;;;;;;;10.77;10.07;;;;;;;;;;5011089;28;20036;-79
2022/01/09 07:41:54;;;;;;;10.63;9.93;;;;;;;;;;5011182;28;20044;-77
2022/01/09 07:44:20;;;;;;;10.85;10.15;;;;;;;;;;5011382;28;20033;-79
2022/01/09 07:46:46;;;;;;;10.85;10.15;;;;;;;;;;5011111;28;20106;-78
2022/01/09 07:49:11;;;;;;;10.75;10.02;;;;;;;;;;4993520;28;20125;-79
2022/01/09 07:51:37;;;;;;;11.05;10.18;;;;;;;;;;5009782;28;20038;-82
2022/01/09 07:54:03;;;;;;;11.32;10.38;;;;;;;;;;5010971;28;20501;-78
2022/01/09 07:56:28;;;;;;;11.82;10.80;;;;;;;;;;5010634;28;20088;-81
2022/01/09 07:58:54;;;;;;;11.05;10.25;;;;;;;;;;5011291;28;20045;-79
2022/01/09 08:01:20;;;;;;;11.43;10.52;;;;;;;;;;5010663;28;20544;-81
2022/01/09 08:03:45;;;;;;;11.00;10.25;;;;;;;;;;5009956;28;20493;-79
2022/01/09 08:06:11;;;;;;;12.13;10.85;;;;;;;;;;5010463;28;20560;-79
2022/01/09 08:08:36;;;;;;;12.52;11.43;;;;;;;;;;5010601;28;20045;-78
2022/01/09 08:11:02;;;;;;;13.43;12.15;;;;;;;;;;5010628;28;20128;-82
2022/01/09 08:13:28;;;;;;;12.68;11.60;;;;;;;;;;4984973;28;20034;-80
2022/01/09 08:15:53;;;;;;;12.70;11.63;;;;;;;;;;5010344;28;20053;-79
2022/01/09 08:18:19;;;;;;;13.15;11.95;;;;;;;;;;5010449;28;20052;-78
2022/01/09 08:20:44;;;;;;;14.32;12.80;;;;;;;;;;4994638;28;20706;-80
2022/01/09 08:23:10;;;;;;;16.08;12.95;;;;;;;;;;5012364;28;20046;-80
2022/01/09 08:25:36;;;;;;;14.75;13.25;;;;;;;;;;4993704;28;20594;-78
2022/01/09 08:28:02;;;;;;;14.60;12.82;;;;;;;;;;4994720;28;20381;-78
2022/01/09 08:30:27;;;;;;;14.73;12.40;;;;;;;;;;5010856;28;20109;-78
2022/01/09 08:32:53;;;;;;;14.40;12.90;;;;;;;;;;5010733;28;20500;-80
2022/01/09 08:35:20;;;;;;;14.75;13.23;;;;;;;;;;5010477;28;20497;-78
2022/01/09 08:37:46;;;;;;;13.82;12.50;;;;;;;;;;5010082;28;20034;-79
2022/01/09 08:40:17;;;;;;;15.07;13.05;;;;;;;;;;4993341;28;20042;-79
2022/01/09 08:42:43;;;;;;;15.77;12.90;;;;;;;;;;4995739;28;20052;-82
2022/01/09 08:45:09;;;;;;;14.93;11.50;;;;;;;;;;5013322;28;20117;-81
2022/01/09 08:47:37;;;;;;;17.70;11.23;;;;;;;;;;5026670;28;20042;-78
2022/01/09 08:50:04;;;;;;;13.23;11.43;;;;;;;;;;5012832;28;20040;-81
2022/01/09 08:52:30;;;;;;;14.73;12.02;;;;;;;;;;5000014;28;20045;-79
2022/01/09 08:54:56;;;;;;;12.52;11.32;;;;;;;;;;5037017;28;20041;-83
2022/01/09 08:57:24;;;;;;;13.82;11.43;;;;;;;;;;5020239;28;20148;-81
2022/01/09 08:59:49;;;;;;;13.32;11.30;;;;;;;;;;4994642;28;20091;-80
2022/01/09 09:02:15;;;;;;;13.68;12.30;;;;;;;;;;5007601;28;20038;-78
2022/01/09 09:04:41;;;;;;;15.23;12.02;;;;;;;;;;4991138;28;20587;-79
2022/01/09 09:07:06;;;;;;;12.95;11.65;;;;;;;;;;5008559;28;20489;-77
2022/01/09 09:09:32;;;;;;;12.95;11.27;;;;;;;;;;5016504;28;20120;-83
2022/01/09 09:11:58;;;;;;;12.82;10.65;;;;;;;;;;5015389;28;20712;-81
2022/01/09 09:14:23;;;;;;;11.90;10.80;;;;;;;;;;5013181;28;20456;-78
2022/01/09 09:16:49;;;;;;;12.02;10.93;;;;;;;;;;5014024;28;20041;-79
2022/01/09 09:19:15;;;;;;;12.10;11.13;;;;;;;;;;5009078;28;20065;-80
2022/01/09 09:21:40;;;;;;;16.73;11.77;;;;;;;;;;5010074;28;20041;-79
2022/01/09 09:24:06;;;;;;;15.55;11.73;;;;;;;;;;5015781;28;20037;-84
2022/01/09 09:26:32;;;;;;;14.05;11.45;;;;;;;;;;5009115;28;20048;-80
2022/01/09 09:28:58;;;;;;;12.82;11.57;;;;;;;;;;5018870;28;20053;-80
2022/01/09 09:31:25;;;;;;;12.00;11.15;;;;;;;;;;5013536;28;20412;-79
2022/01/09 09:33:51;;;;;;;15.48;11.18;;;;;;;;;;5009726;28;20116;-78
2022/01/09 09:36:16;;;;;;;18.27;11.60;;;;;;;;;;5022951;28;20452;-77
2022/01/09 09:38:42;;;;;;;14.90;11.60;;;;;;;;;;5014732;28;20048;-80
2022/01/09 09:41:08;;;;;;;15.65;11.40;;;;;;;;;;4995732;28;20120;-78
2022/01/09 09:43:35;;;;;;;11.88;10.77;;;;;;;;;;5011092;28;20588;-78
2022/01/09 09:46:00;;;;;;;11.77;10.63;;;;;;;;;;5015444;28;20501;-79
2022/01/09 09:48:26;;;;;;;11.93;10.82;;;;;;;;;;5015070;28;20078;-81
2022/01/09 09:50:57;;;;;;;15.75;10.90;;;;;;;;;;5015230;28;20025;-80
2022/01/09 09:53:23;;;;;;;17.63;11.10;;;;;;;;;;5012584;28;20030;-79
2022/01/09 09:55:51;;;;;;;16.65;11.40;;;;;;;;;;5013668;28;20285;-77
2022/01/09 09:58:18;;;;;;;10.80;10.00;;;;;;;;;;4998753;28;20732;-76
2022/01/09 10:00:54;;;;;;;14.02;10.25;;;;;;;;;;4994743;28;20038;-82
2022/01/09 10:03:33;;;;;;;12.35;9.90;;;;;;;;;;5022423;28;20042;-80
2022/01/09 10:05:59;;;;;;;18.08;10.10;;;;;;;;;;4996523;28;20042;-79
2022/01/09 10:08:49;;;;;;;11.77;9.98;;;;;;;;;;5014845;28;20061;-79
2022/01/09 10:11:16;;;;;;;15.38;10.13;;;;;;;;;;5009979;28;20641;-79
2022/01/09 10:13:42;;;;;;;15.57;10.40;;;;;;;;;;5015200;28;20045;-79
2022/01/09 10:16:10;;;;;;;15.32;10.70;;;;;;;;;;4995328;28;20073;-77
2022/01/09 10:18:40;;;;;;;11.77;9.90;;;;;;;;;;5012302;28;20135;-81
2022/01/09 10:21:10;;;;;;;13.45;10.27;;;;;;;;;;4992047;28;20034;-81
2022/01/09 10:23:57;;;;;;;11.05;10.00;;;;;;;;;;4992064;28;20721;-80
2022/01/09 10:26:24;;;;;;;16.17;9.73;;;;;;;;;;4993510;28;20066;-79
2022/01/09 10:28:50;;;;;;;13.73;9.82;;;;;;;;;;5007528;28;20487;-78
2022/01/09 10:31:16;;;;;;;11.65;9.73;;;;;;;;;;4976009;28;20148;-81
2022/01/09 10:34:01;;;;;;;13.60;9.38;;;;;;;;;;5007439;28;20034;-79
2022/01/09 10:36:44;;;;;;;15.07;9.48;;;;;;;;;;5006723;28;20485;-79
2022/01/09 10:39:26;;;;;;;12.43;9.02;;;;;;;;;;5016289;28;20083;-81
2022/01/09 10:41:58;;;;;;;10.48;8.52;;;;;;;;;;5008911;28;20030;-81
2022/01/09 10:44:30;;;;;;;9.45;8.65;;;;;;;;;;5007471;28;20030;-78
2022/01/09 10:47:09;;;;;;;9.75;8.73;;;;;;;;;;4986851;28;20226;-81
2022/01/09 10:49:48;;;;;;;16.20;9.10;;;;;;;;;;5000595;28;20042;-84
2022/01/09 10:52:20;;;;;;;12.80;9.00;;;;;;;;;;5007192;28;20329;-80
2022/01/09 10:54:49;;;;;;;15.85;9.90;;;;;;;;;;5021440;28;20057;-81
2022/01/09 10:57:26;;;;;;;11.85;9.10;;;;;;;;;;5008574;28;20041;-81
2022/01/09 10:59:53;;;;;;;10.48;9.05;;;;;;;;;;5007464;28;20069;-78
2022/01/09 11:02:20;;;;;;;11.30;9.30;;;;;;;;;;5018653;28;20060;-81
2022/01/09 11:04:48;;;;;;;13.95;9.20;;;;;;;;;;5017018;28;20046;-78
2022/01/09 11:07:15;;;;;;;10.10;9.20;;;;;;;;;;5016825;28;20042;-81
2022/01/09 11:09:46;;;;;;;11.90;9.40;;;;;;;;;;5019992;28;20050;-79
2022/01/09 11:12:16;;;;;;;13.32;9.93;;;;;;;;;;5031257;28;20037;-78
2022/01/09 11:14:43;;;;;;;11.70;10.00;;;;;;;;;;5016888;28;20038;-77
2022/01/09 11:17:10;;;;;;;11.02;9.40;;;;;;;;;;5031009;28;20060;-79
2022/01/09 11:19:38;;;;;;;9.98;9.00;;;;;;;;;;5020873;28;20500;-80
2022/01/09 11:22:06;;;;;;;11.63;9.00;;;;;;;;;;5018216;28;20040;-77
2022/01/09 11:24:40;;;;;;;10.55;9.50;;;;;;;;;;4993119;28;20497;-81
2022/01/09 11:27:18;;;;;;;10.88;10.00;;;;;;;;;;5011768;28;20041;-80
2022/01/09 11:30:03;;;;;;;11.20;10.50;;;;;;;;;;5014833;28;20069;-77
2022/01/09 11:32:56;;;;;;;12.80;10.95;;;;;;;;;;4997222;28;20025;-81
2022/01/09 11:35:25;;;;;;;10.90;9.85;;;;;;;;;;5012875;28;20042;-81
2022/01/09 11:38:11;;;;;;;10.82;9.65;;;;;;;;;;5011965;28;20034;-80
2022/01/09 11:40:38;;;;;;;10.50;9.45;;;;;;;;;;4993951;28;20049;-78
2022/01/09 11:43:08;;;;;;;10.35;9.45;;;;;;;;;;5012003;28;20112;-79
2022/01/09 11:46:00;;;;;;;13.10;10.20;;;;;;;;;;5014997;28;20129;-79
2022/01/09 11:48:59;;;;;;;10.45;9.40;;;;;;;;;;5012096;28;20040;-80
2022/01/09 11:51:28;;;;;;;10.90;10.00;;;;;;;;;;4985427;28;20045;-78
2022/01/09 11:54:10;;;;;;;11.30;10.37;;;;;;;;;;5017767;28;20032;-78
2022/01/09 11:56:42;;;;;;;11.25;10.25;;;;;;;;;;5003931;28;20288;-80
2022/01/09 11:59:33;;;;;;;11.18;10.27;;;;;;;;;;4994984;28;20030;-81
2022/01/09 12:02:00;;;;;;;10.45;9.32;;;;;;;;;;5021541;28;20485;-81
2022/01/09 12:04:49;;;;;;;11.30;10.23;;;;;;;;;;5011341;28;20037;-79
2022/01/09 12:07:34;;;;;;;10.52;9.80;;;;;;;;;;4983773;28;20524;-78
2022/01/09 12:10:02;;;;;;;11.00;10.00;;;;;;;;;;4998178;28;20041;-79
2022/01/09 12:12:31;;;;;;;10.77;9.67;;;;;;;;;;5017386;28;20100;-77
2022/01/09 12:15:04;;;;;;;10.50;9.60;;;;;;;;;;4993939;28;20449;-79
2022/01/09 12:17:33;;;;;;;10.20;9.43;;;;;;;;;;5014105;28;20299;-78
2022/01/09 12:20:03;;;;;;;10.13;9.43;;;;;;;;;;5013779;28;20095;-79
2022/01/09 12:22:51;;;;;;;11.00;10.00;;;;;;;;;;5011896;28;20080;-79
2022/01/09 12:25:25;;;;;;;10.60;9.70;;;;;;;;;;5014482;28;20155;-79
2022/01/09 12:28:14;;;;;;;10.13;9.10;;;;;;;;;;4999668;28;20046;-79
2022/01/09 12:30:41;;;;;;;10.32;9.40;;;;;;;;;;5013851;28;20096;-78
2022/01/09 12:33:20;;;;;;;10.38;9.35;;;;;;;;;;5013108;28;20034;-79
2022/01/09 12:36:13;;;;;;;9.77;8.85;;;;;;;;;;5013598;28;20060;-77
2022/01/09 12:38:46;;;;;;;10.48;9.07;;;;;;;;;;5011493;28;20129;-77
2022/01/09 12:41:15;;;;;;;15.43;11.68;;;;;;;;;;5010362;28;20038;-79
2022/01/09 12:43:41;;;;;;;;;;;;;;;;;;5011172;28;20088;-79
2022/01/09 12:46:17;;;;;;;12.55;9.77;;;;;;;;;;5009891;28;20019;-76
2022/01/09 12:49:00;;;;;;;10.60;9.52;;;;;;;;;;5006980;28;20034;-76
2022/01/09 12:51:30;;;;;;;10.32;9.55;;;;;;;;;;4990044;28;20076;-79
2022/01/09 12:53:58;;;;;;;11.18;10.15;;;;;;;;;;5014577;28;20042;-79
2022/01/09 12:56:50;;;;;;;14.15;11.35;;;;;;;;;;5017240;28;20056;-78
2022/01/09 12:59:16;;;;;;;14.90;11.63;;;;;;;;;;5012300;28;20120;-79
2022/01/09 13:01:43;;;;;;;12.55;11.30;;;;;;;;;;5014998;28;20069;-80
2022/01/09 13:04:13;;;;;;;11.43;10.40;;;;;;;;;;4998571;28;20037;-78
2022/01/09 13:06:40;;;;;;;12.15;11.05;;;;;;;;;;5014256;28;20129;-79
2022/01/09 13:09:14;;;;;;;11.43;10.35;;;;;;;;;;5013394;28;20030;-79
2022/01/09 13:11:39;;;;;;;10.60;9.52;;;;;;;;;;5015804;28;20037;-79
2022/01/09 13:14:07;;;;;;;10.43;9.40;;;;;;;;;;5013634;28;20093;-79
2022/01/09 13:16:35;;;;;;;10.25;9.45;;;;;;;;;;5013746;28;20034;-77
2022/01/09 13:19:05;;;;;;;9.75;8.95;;;;;;;;;;5016643;28;20033;-78
2022/01/09 13:21:39;;;;;;;10.27;9.32;;;;;;;;;;5016154;28;20041;-78
2022/01/09 13:24:09;;;;;;;10.50;9.43;;;;;;;;;;5020884;28;20037;-78
2022/01/09 13:26:43;;;;;;;11.70;9.73;;;;;;;;;;4991846;28;20036;-79
2022/01/09 13:29:20;;;;;;;10.00;9.27;;;;;;;;;;5000641;28;20049;-79
2022/01/09 13:31:51;;;;;;;12.20;10.00;;;;;;;;;;5000771;28;20038;-79
2022/01/09 13:34:27;;;;;;;10.50;9.63;;;;;;;;;;5015413;28;20030;-79
2022/01/09 13:36:53;;;;;;;11.20;10.13;;;;;;;;;;4995958;28;20409;-79
2022/01/09 13:39:27;;;;;;;10.32;9.43;;;;;;;;;;5014192;28;20042;-78
2022/01/09 13:41:59;;;;;;;11.30;10.30;;;;;;;;;;5014120;28;20034;-78
2022/01/09 13:44:30;;;;;;;13.00;9.82;;;;;;;;;;5016934;28;20034;-79
2022/01/09 13:47:12;;;;;;;11.98;9.70;;;;;;;;;;5017624;28;20036;-79
2022/01/09 13:49:56;;;;;;;11.85;10.80;;;;;;;;;;5011361;28;20049;-76
2022/01/09 13:52:24;;;;;;;10.93;10.13;;;;;;;;;;5016560;28;20029;-78
2022/01/09 13:55:03;;;;;;;11.38;10.38;;;;;;;;;;5019382;28;20070;-79
2022/01/09 13:57:29;;;;;;;11.27;10.25;;;;;;;;;;5016560;28;20582;-77
2022/01/09 13:59:59;;;;;;;12.63;10.00;;;;;;;;;;5015193;28;20116;-79
2022/01/09 14:02:26;;;;;;;11.20;10.20;;;;;;;;;;5015988;28;20489;-76
2022/01/09 14:05:10;;;;;;;10.88;9.95;;;;;;;;;;4999643;28;20692;-78
2022/01/09 14:07:37;;;;;;;11.05;10.18;;;;;;;;;;5015937;28;20057;-77
2022/01/09 14:10:07;;;;;;;15.18;11.15;;;;;;;;;;4999791;28;20037;-79
2022/01/09 14:12:39;;;;;;;10.48;9.70;;;;;;;;;;5015611;28;20116;-78
2022/01/09 14:15:12;;;;;;;11.05;10.10;;;;;;;;;;5017380;28;20081;-77
2022/01/09 14:17:48;;;;;;;11.20;10.18;;;;;;;;;;5013970;28;20038;-77
2022/01/09 14:20:21;;;;;;;12.82;10.38;;;;;;;;;;5014815;28;20042;-77
2022/01/09 14:22:49;;;;;;;10.95;9.93;;;;;;;;;;5016426;28;20103;-78
2022/01/09 14:25:33;;;;;;;11.43;9.98;;;;;;;;;;4999255;28;20042;-78
2022/01/09 14:28:03;;;;;;;10.23;9.35;;;;;;;;;;5016260;28;20095;-78
2022/01/09 14:30:30;;;;;;;10.95;9.95;;;;;;;;;;5017062;28;20533;-77
2022/01/09 14:33:14;;;;;;;11.00;10.00;;;;;;;;;;5016798;28;20070;-77
2022/01/09 14:35:46;;;;;;;10.25;9.00;;;;;;;;;;5012360;28;20068;-78
2022/01/09 14:38:19;;;;;;;10.63;9.25;;;;;;;;;;5016478;28;20033;-79
2022/01/09 14:40:48;;;;;;;10.00;9.20;;;;;;;;;;4999247;28;20554;-78
2022/01/09 14:43:13;;;;;;;10.40;9.43;;;;;;;;;;5013103;28;20037;-76